createdAt,value
2023-04-26T00:02:36.340Z,10.57
2023-04-26T00:05:41.856Z,10.90
2023-04-26T00:08:48.145Z,11.17
2023-04-26T00:11:51.453Z,11.40
2023-04-26T00:14:54.379Z,11.00
2023-04-26T00:17:57.814Z,11.13
2023-04-26T00:21:01.268Z,11.73
2023-04-26T00:24:08.166Z,12.97
2023-04-26T00:27:11.539Z,10.15
2023-04-26T00:30:15.362Z,12.68
2023-04-26T00:33:18.418Z,15.23
2023-04-26T00:36:21.342Z,9.57
2023-04-26T00:39:24.817Z,13.70
2023-04-26T00:42:31.413Z,12.48
2023-04-26T00:45:35.542Z,12.23
2023-04-26T00:48:38.793Z,11.68
2023-04-26T00:51:42.908Z,11.60
2023-04-26T00:54:46.224Z,11.80
2023-04-26T00:57:50.076Z,11.37
2023-04-26T01:00:53.486Z,13.75
2023-04-26T01:03:57.206Z,12.50
2023-04-26T01:07:03.268Z,14.00
2023-04-26T01:10:10.546Z,11.60
2023-04-26T01:13:14.425Z,12.43
2023-04-26T01:16:21.032Z,15.50
2023-04-26T01:19:24.084Z,14.97
2023-04-26T01:22:36.961Z,12.95
2023-04-26T01:25:40.448Z,17.48
2023-04-26T01:28:43.933Z,15.05
2023-04-26T01:31:49.273Z,17.00
2023-04-26T01:34:54.744Z,16.58
2023-04-26T01:38:01.605Z,14.68
2023-04-26T01:41:07.660Z,19.98
2023-04-26T01:44:11.132Z,17.80
2023-04-26T01:47:14.719Z,16.80
2023-04-26T01:50:21.371Z,17.90
2023-04-26T01:53:27.787Z,24.13
2023-04-26T01:56:31.616Z,19.13
2023-04-26T01:59:46.117Z,14.20
2023-04-26T02:02:53.247Z,16.45
2023-04-26T02:05:59.935Z,15.63
2023-04-26T02:09:05.565Z,18.70
2023-04-26T02:12:09.101Z,19.40
2023-04-26T02:15:12.386Z,16.50
2023-04-26T02:18:16.073Z,16.93
2023-04-26T02:21:22.941Z,18.20
2023-04-26T02:24:26.625Z,21.33
2023-04-26T02:27:31.125Z,18.83
2023-04-26T02:30:37.335Z,19.73
2023-04-26T02:33:43.521Z,20.52
2023-04-26T02:36:51.375Z,18.17
2023-04-26T02:40:02.984Z,17.17
2023-04-26T02:43:07.588Z,16.77
2023-04-26T02:46:17.187Z,19.60
2023-04-26T02:49:23.044Z,16.92
2023-04-26T02:52:32.862Z,18.00
2023-04-26T02:55:38.315Z,22.95
2023-04-26T02:58:42.607Z,19.67
2023-04-26T03:01:49.098Z,23.13
2023-04-26T03:04:53.251Z,17.73
2023-04-26T03:08:00.930Z,19.55
2023-04-26T03:11:03.924Z,18.95
2023-04-26T03:14:07.305Z,17.27
2023-04-26T03:17:10.529Z,18.00
2023-04-26T03:20:14.972Z,17.00
2023-04-26T03:23:18.453Z,17.10
2023-04-26T03:26:22.830Z,19.40
2023-04-26T03:29:26.394Z,17.90
2023-04-26T03:32:29.550Z,16.42
2023-04-26T03:35:32.614Z,19.13
2023-04-26T03:38:37.326Z,17.05
2023-04-26T03:41:40.669Z,18.63
2023-04-26T03:44:45.516Z,22.45
2023-04-26T03:47:52.301Z,18.67
2023-04-26T03:50:55.474Z,17.50
2023-04-26T03:54:02.309Z,19.98
2023-04-26T03:57:15.982Z,19.27
2023-04-26T04:00:19.823Z,16.33
2023-04-26T04:03:26.067Z,15.40
2023-04-26T04:06:29.855Z,19.90
2023-04-26T04:09:39.655Z,19.00
2023-04-26T04:12:54.981Z,16.43
2023-04-26T04:15:59.274Z,19.85
2023-04-26T04:19:04.873Z,17.63
2023-04-26T04:22:09.275Z,15.23
2023-04-26T04:25:15.816Z,17.08
2023-04-26T04:28:20.649Z,16.30
2023-04-26T04:31:25.016Z,17.90
2023-04-26T04:34:34.878Z,18.53
2023-04-26T04:37:38.215Z,18.95
2023-04-26T04:40:44.365Z,17.23
2023-04-26T04:43:48.594Z,18.88
2023-04-26T04:46:55.432Z,23.13
2023-04-26T04:50:00.700Z,18.50
2023-04-26T04:53:06.655Z,21.92
2023-04-26T04:56:17.244Z,14.50
2023-04-26T04:59:43.669Z,12.73
2023-04-26T05:02:47.783Z,15.50
2023-04-26T05:05:54.164Z,12.27
2023-04-26T05:08:57.748Z,9.70
2023-04-26T05:12:01.204Z,12.37
2023-04-26T05:15:05.506Z,14.80
2023-04-26T05:18:10.311Z,11.55
2023-04-26T05:21:13.937Z,12.23
2023-04-26T05:24:17.527Z,15.10
2023-04-26T05:27:29.915Z,15.43
2023-04-26T05:31:17.381Z,15.23
2023-04-26T05:34:40.168Z,15.38
2023-04-26T05:37:52.172Z,14.10
2023-04-26T05:40:57.941Z,13.57
2023-04-26T05:44:06.106Z,13.40
2023-04-26T05:47:13.978Z,14.30
2023-04-26T05:50:20.157Z,12.40
2023-04-26T05:53:25.595Z,13.90
2023-04-26T05:56:31.323Z,11.68
2023-04-26T05:59:37.989Z,14.70
2023-04-26T06:02:42.440Z,9.57
2023-04-26T06:05:50.959Z,5.80
2023-04-26T06:08:55.450Z,6.50
2023-04-26T06:12:00.180Z,6.55
2023-04-26T06:15:22.412Z,5.17
2023-04-26T06:18:26.153Z,7.43
2023-04-26T06:21:32.194Z,5.38
2023-04-26T06:25:54.553Z,3.85
2023-04-26T06:34:39.705Z,7.28
2023-04-26T06:37:43.953Z,6.25
2023-04-26T06:40:52.006Z,8.43
2023-04-26T06:44:50.278Z,4.65
2023-04-26T06:48:24.430Z,7.03
2023-04-26T06:51:29.846Z,7.63
2023-04-26T06:54:45.865Z,6.43
2023-04-26T06:57:59.019Z,9.18
2023-04-26T07:01:03.080Z,6.80
2023-04-26T07:04:11.588Z,8.88
2023-04-26T07:07:16.988Z,6.72
2023-04-26T07:10:24.223Z,6.57
2023-04-26T07:13:28.218Z,4.47
2023-04-26T07:16:55.330Z,11.25
2023-04-26T07:19:59.746Z,5.38
2023-04-26T07:23:08.894Z,8.50
2023-04-26T07:26:18.751Z,5.73
2023-04-26T07:29:43.192Z,7.90
2023-04-26T07:32:57.991Z,5.22
2023-04-26T07:36:37.740Z,5.15
2023-04-26T07:39:54.479Z,6.25
2023-04-26T07:43:23.694Z,4.77
2023-04-26T07:50:59.956Z,5.55
2023-04-26T07:54:19.602Z,5.07
2023-04-26T08:02:03.722Z,18.27
2023-04-26T08:05:37.248Z,5.90
2023-04-26T08:09:41.338Z,4.90
2023-04-26T08:13:55.264Z,4.97
2023-04-26T08:17:00.699Z,9.60
2023-04-26T08:20:16.934Z,8.90
2023-04-26T08:23:59.011Z,4.82
2023-04-26T08:27:26.540Z,10.07
2023-04-26T08:30:49.663Z,9.10
2023-04-26T08:34:20.899Z,7.80
2023-04-26T09:00:08.063Z,6.25
2023-04-26T09:04:06.705Z,7.07
2023-04-26T09:08:06.857Z,5.10
2023-04-26T09:11:42.897Z,4.60
2023-04-26T09:16:00.865Z,7.88
2023-04-26T09:20:07.836Z,5.18
2023-04-26T09:24:11.497Z,4.93
2023-04-26T09:27:52.423Z,5.60
2023-04-26T09:39:07.772Z,5.57
2023-04-26T09:42:22.537Z,5.50
2023-04-26T09:46:00.276Z,4.95
2023-04-26T09:49:19.172Z,4.35
2023-04-26T09:53:14.935Z,3.15
2023-04-26T09:56:37.147Z,8.23
2023-04-26T10:00:03.508Z,8.70
2023-04-26T10:03:38.044Z,3.42
2023-04-26T10:07:18.634Z,7.43
2023-04-26T10:14:45.612Z,4.13
2023-04-26T10:18:13.841Z,3.55
2023-04-26T10:21:55.728Z,7.03
2023-04-26T10:26:13.421Z,5.47
2023-04-26T10:29:26.362Z,3.33
2023-04-26T10:32:34.019Z,7.17
2023-04-26T10:39:33.208Z,4.68
2023-04-26T10:43:44.574Z,4.90
2023-04-26T10:47:35.712Z,5.00
2023-04-26T10:55:10.086Z,3.83
2023-04-26T10:58:44.759Z,5.95
2023-04-26T11:01:55.426Z,4.95
2023-04-26T11:05:42.384Z,4.05
2023-04-26T11:08:53.470Z,4.03
2023-04-26T11:12:07.577Z,4.68
2023-04-26T11:15:25.582Z,5.20
2023-04-26T11:18:37.053Z,6.10
2023-04-26T11:25:06.798Z,5.93
2023-04-26T11:28:11.444Z,6.65
2023-04-26T11:31:19.735Z,3.78
2023-04-26T11:34:53.276Z,4.25
2023-04-26T11:38:03.104Z,3.50
2023-04-26T11:41:15.160Z,4.77
2023-04-26T11:44:22.621Z,3.30
2023-04-26T11:47:31.264Z,3.55
2023-04-26T11:50:37.170Z,3.22
2023-04-26T11:53:56.136Z,4.70
2023-04-26T11:57:06.649Z,2.93
2023-04-26T12:00:18.842Z,5.38
2023-04-26T12:03:40.737Z,4.85
2023-04-26T12:07:01.340Z,7.82
2023-04-26T12:10:35.946Z,2.30
2023-04-26T12:13:42.358Z,6.20
2023-04-26T12:16:55.994Z,6.13
2023-04-26T12:20:08.773Z,3.08
2023-04-26T12:23:28.607Z,4.03
2023-04-26T12:26:53.529Z,4.30
2023-04-26T12:29:58.267Z,8.50
2023-04-26T12:33:15.441Z,7.13
2023-04-26T12:36:25.579Z,4.05
2023-04-26T12:39:32.713Z,3.90
2023-04-26T12:42:49.504Z,4.20
2023-04-26T12:46:11.879Z,3.27
2023-04-26T12:49:20.710Z,6.82
2023-04-26T12:56:57.743Z,5.78
2023-04-26T13:00:50.683Z,6.37
2023-04-26T13:07:54.345Z,5.95
2023-04-26T13:11:28.292Z,11.00
2023-04-26T13:14:58.009Z,7.15
2023-04-26T13:18:39.791Z,6.70
2023-04-26T13:21:43.549Z,4.23
2023-04-26T13:25:18.547Z,4.07
2023-04-26T13:29:12.869Z,5.50
2023-04-26T13:33:11.344Z,3.65
2023-04-26T13:36:34.573Z,7.57
2023-04-26T13:39:50.665Z,7.23
2023-04-26T13:47:36.589Z,4.20
2023-04-26T13:51:38.144Z,4.47
2023-04-26T13:55:32.547Z,7.00
2023-04-26T13:59:09.102Z,6.03
2023-04-26T14:02:39.326Z,3.80
2023-04-26T14:05:50.417Z,4.25
2023-04-26T14:08:55.629Z,4.68
2023-04-26T14:15:17.567Z,5.83
2023-04-26T14:18:23.980Z,6.90
2023-04-26T14:21:28.199Z,7.35
2023-04-26T14:24:37.576Z,4.78
2023-04-26T14:27:52.284Z,4.03
2023-04-26T14:30:57.982Z,8.67
2023-04-26T14:34:05.754Z,5.95
2023-04-26T14:37:12.378Z,5.38
2023-04-26T14:40:28.909Z,4.88
2023-04-26T14:43:48.930Z,4.23
2023-04-26T14:46:52.797Z,6.63
2023-04-26T14:49:57.878Z,3.22
2023-04-26T14:53:06.267Z,5.15
2023-04-26T14:56:10.096Z,6.57
2023-04-26T14:59:13.857Z,6.43
2023-04-26T15:02:20.488Z,6.37
2023-04-26T15:05:25.170Z,4.65
2023-04-26T15:08:28.733Z,6.88
2023-04-26T15:11:35.357Z,4.47
2023-04-26T15:14:38.736Z,9.93
2023-04-26T15:17:42.363Z,4.43
2023-04-26T15:20:48.730Z,6.28
2023-04-26T15:23:56.567Z,4.93
2023-04-26T15:27:00.345Z,5.30
2023-04-26T15:30:09.270Z,4.27
2023-04-26T15:33:13.559Z,4.93
2023-04-26T15:36:20.832Z,5.80
2023-04-26T15:39:28.866Z,5.00
2023-04-26T15:42:35.471Z,7.45
2023-04-26T15:45:38.957Z,4.13
2023-04-26T15:48:42.106Z,5.78
2023-04-26T15:51:45.929Z,6.22
2023-04-26T15:54:49.306Z,28.90
2023-04-26T15:57:52.593Z,6.65
2023-04-26T16:00:56.226Z,8.67
2023-04-26T16:04:00.067Z,7.68
2023-04-26T16:07:04.680Z,9.52
2023-04-26T16:10:10.419Z,21.45
2023-04-26T16:13:17.525Z,11.97
2023-04-26T16:16:21.340Z,9.63
2023-04-26T16:19:24.861Z,11.02
2023-04-26T16:22:28.958Z,10.77
2023-04-26T16:25:32.569Z,9.88
2023-04-26T16:28:37.868Z,4.97
2023-04-26T16:31:41.329Z,4.63
2023-04-26T16:34:44.949Z,10.73
2023-04-26T16:37:50.707Z,14.55
2023-04-26T16:41:00.834Z,8.87
2023-04-26T16:44:04.060Z,6.83
2023-04-26T16:47:08.109Z,7.53
2023-04-26T16:50:11.589Z,3.95
2023-04-26T16:53:14.807Z,6.43
2023-04-26T16:56:18.134Z,4.53
2023-04-26T16:59:24.598Z,4.57
2023-04-26T17:02:28.610Z,6.00
2023-04-26T17:05:32.071Z,5.18
2023-04-26T17:08:36.596Z,5.67
2023-04-26T17:11:43.851Z,6.40
2023-04-26T17:14:51.254Z,9.93
2023-04-26T17:17:58.103Z,7.47
2023-04-26T17:21:04.213Z,4.93
2023-04-26T17:24:07.953Z,6.40
2023-04-26T17:27:15.087Z,5.03
2023-04-26T17:30:21.137Z,5.68
2023-04-26T17:33:29.236Z,6.72
2023-04-26T17:36:33.327Z,4.87
2023-04-26T17:39:40.388Z,5.22
2023-04-26T17:42:44.597Z,8.48
2023-04-26T17:45:48.433Z,5.55
2023-04-26T17:48:52.267Z,7.03
2023-04-26T17:51:56.366Z,4.03
2023-04-26T17:54:59.757Z,4.50
2023-04-26T17:58:03.231Z,5.35
2023-04-26T18:01:07.810Z,6.05
2023-04-26T18:04:11.327Z,12.23
2023-04-26T18:07:15.431Z,8.32
2023-04-26T18:10:22.399Z,4.60
2023-04-26T18:13:25.569Z,9.30
2023-04-26T18:16:29.406Z,10.80
2023-04-26T18:19:33.050Z,11.10
2023-04-26T18:22:37.458Z,12.68
2023-04-26T18:25:41.853Z,10.35
2023-04-26T18:28:46.472Z,10.80
2023-04-26T18:31:50.972Z,12.07
2023-04-26T18:34:54.864Z,12.73
2023-04-26T18:37:58.351Z,10.27
2023-04-26T18:41:02.046Z,17.37
2023-04-26T18:44:13.466Z,15.63
2023-04-26T18:47:19.346Z,10.85
2023-04-26T18:50:22.928Z,13.27
2023-04-26T18:53:26.623Z,12.27
2023-04-26T18:56:30.617Z,16.85
2023-04-26T18:59:34.109Z,11.52
2023-04-26T19:02:42.385Z,12.20
2023-04-26T19:05:46.489Z,8.50
2023-04-26T19:08:50.076Z,11.95
2023-04-26T19:11:53.778Z,11.38
2023-04-26T19:14:57.260Z,11.60
2023-04-26T19:18:00.875Z,10.80
2023-04-26T19:21:08.414Z,9.05
2023-04-26T19:24:12.517Z,11.13
2023-04-26T19:27:16.714Z,14.13
2023-04-26T19:30:20.439Z,20.10
2023-04-26T19:33:24.602Z,30.35
2023-04-26T19:36:29.079Z,20.25
2023-04-26T19:39:35.268Z,22.50
2023-04-26T19:42:38.860Z,17.50
2023-04-26T19:45:42.848Z,12.93
2023-04-26T19:48:49.510Z,23.55
2023-04-26T19:51:53.087Z,48.33
2023-04-26T19:54:59.752Z,48.23
2023-04-26T19:58:03.545Z,25.17
2023-04-26T20:01:08.013Z,22.52
2023-04-26T20:04:11.834Z,8.77
2023-04-26T20:07:18.210Z,8.57
2023-04-26T20:10:24.899Z,8.02
2023-04-26T20:13:29.141Z,5.03
2023-04-26T20:16:35.824Z,6.13
2023-04-26T20:19:39.298Z,5.83
2023-04-26T20:22:42.780Z,6.78
2023-04-26T20:25:46.073Z,7.38
2023-04-26T20:28:50.044Z,6.47
2023-04-26T20:31:54.089Z,4.27
2023-04-26T20:34:57.758Z,9.30
2023-04-26T20:38:01.730Z,6.40
2023-04-26T20:41:05.398Z,7.72
2023-04-26T20:44:08.772Z,5.33
2023-04-26T20:47:12.158Z,3.70
2023-04-26T20:50:15.448Z,3.38
2023-04-26T20:53:19.025Z,2.63
2023-04-26T20:56:22.332Z,3.67
2023-04-26T20:59:26.241Z,3.50
2023-04-26T21:02:29.649Z,2.72
2023-04-26T21:05:36.579Z,4.43
2023-04-26T21:08:40.754Z,3.00
2023-04-26T21:11:44.036Z,3.55
2023-04-26T21:14:48.245Z,4.47
2023-04-26T21:17:51.486Z,7.87
2023-04-26T21:20:55.418Z,5.03
2023-04-26T21:24:04.326Z,3.95
2023-04-26T21:27:07.838Z,4.70
2023-04-26T21:30:11.622Z,6.63
2023-04-26T21:33:16.243Z,4.80
2023-04-26T21:36:19.788Z,7.25
2023-04-26T21:39:23.070Z,5.70
2023-04-26T21:42:26.756Z,5.07
2023-04-26T21:45:30.436Z,3.70
2023-04-26T21:48:33.929Z,4.82
2023-04-26T21:51:37.318Z,7.32
2023-04-26T21:54:40.818Z,4.40
2023-04-26T21:57:44.287Z,3.40
2023-04-26T22:00:48.085Z,8.88
2023-04-26T22:03:52.354Z,5.15
2023-04-26T22:06:56.370Z,5.13
2023-04-26T22:09:59.961Z,7.33
2023-04-26T22:13:03.675Z,5.05
2023-04-26T22:16:07.159Z,1.80
2023-04-26T22:19:11.156Z,3.83
2023-04-26T22:22:14.720Z,4.40
2023-04-26T22:25:17.904Z,4.32
2023-04-26T22:28:21.385Z,2.58
2023-04-26T22:31:24.699Z,4.47
2023-04-26T22:34:29.467Z,5.73
2023-04-26T22:37:33.186Z,2.00
2023-04-26T22:40:37.163Z,5.32
2023-04-26T22:43:41.766Z,7.03
2023-04-26T22:46:45.265Z,2.87
2023-04-26T22:49:49.557Z,5.35
2023-04-26T22:52:53.056Z,4.53
2023-04-26T22:55:56.533Z,3.73
2023-04-26T22:58:59.598Z,4.55
2023-04-26T23:02:03.287Z,5.82
2023-04-26T23:05:10.395Z,5.82
2023-04-26T23:08:13.741Z,3.87
2023-04-26T23:11:17.324Z,5.68
2023-04-26T23:14:20.705Z,5.55
2023-04-26T23:17:24.137Z,7.20
2023-04-26T23:20:27.799Z,4.07
2023-04-26T23:23:31.053Z,6.25
2023-04-26T23:26:34.416Z,5.18
2023-04-26T23:29:37.778Z,6.20
2023-04-26T23:32:41.494Z,7.17
2023-04-26T23:35:45.507Z,7.65
2023-04-26T23:38:49.279Z,8.23
2023-04-26T23:41:52.773Z,6.03
2023-04-26T23:44:56.656Z,8.13
2023-04-26T23:48:00.093Z,4.03
2023-04-26T23:51:05.700Z,5.60
2023-04-26T23:54:09.276Z,6.00
2023-04-26T23:57:12.795Z,6.97
